createdAt,value
2018-08-23T00:00:53.022Z,101575.41
2018-08-23T00:01:54.399Z,101574.91
2018-08-23T00:02:54.837Z,101573.98
2018-08-23T00:03:55.176Z,101573.77
2018-08-23T00:04:55.492Z,101573.20
2018-08-23T00:05:56.690Z,101573.16
2018-08-23T00:06:55.925Z,101572.31
2018-08-23T00:07:56.295Z,101572.10
2018-08-23T00:08:56.609Z,101571.44
2018-08-23T00:09:56.895Z,101571.08
2018-08-23T00:10:57.281Z,101571.23
2018-08-23T00:11:57.578Z,101571.59
2018-08-23T00:12:57.938Z,101571.11
2018-08-23T00:13:58.269Z,101570.59
2018-08-23T00:14:57.591Z,101570.42
2018-08-23T00:15:58.927Z,101570.33
2018-08-23T00:16:59.591Z,101570.02
2018-08-23T00:17:59.891Z,101569.85
2018-08-23T00:19:00.235Z,101569.51
2018-08-23T00:20:00.530Z,101569.13
2018-08-23T00:21:00.793Z,101569.03
2018-08-23T00:22:01.030Z,101567.83
2018-08-23T00:23:01.320Z,101567.81
2018-08-23T00:24:01.800Z,101567.20
2018-08-23T00:25:02.080Z,101567.09
2018-08-23T00:26:02.556Z,101567.00
2018-08-23T00:27:02.927Z,101566.22
2018-08-23T00:28:02.105Z,101565.69
2018-08-23T00:29:03.352Z,101565.49
2018-08-23T00:30:03.602Z,101565.32
2018-08-23T00:31:03.798Z,101565.11
2018-08-23T00:32:04.163Z,101565.06
2018-08-23T00:33:04.391Z,101565.31
2018-08-23T00:34:04.599Z,101565.22
2018-08-23T00:35:04.971Z,101565.13
2018-08-23T00:36:05.222Z,101565.30
2018-08-23T00:37:05.447Z,101565.72
2018-08-23T00:38:05.734Z,101565.55
2018-08-23T00:39:06.175Z,101565.48
2018-08-23T00:40:06.431Z,101565.38
2018-08-23T00:41:06.820Z,101565.22
2018-08-23T00:42:07.038Z,101565.05
2018-08-23T00:42:15.183Z,101567.22
2018-08-23T00:43:16.799Z,101566.98
2018-08-23T00:44:17.072Z,101567.00
2018-08-23T00:45:17.707Z,101566.59
2018-08-23T00:46:18.101Z,101566.32
2018-08-23T00:47:18.339Z,101566.17
2018-08-23T00:48:18.585Z,101566.09
2018-08-23T00:49:18.916Z,101565.29
2018-08-23T00:50:19.119Z,101565.56
2018-08-23T00:51:19.477Z,101565.48
2018-08-23T00:52:19.737Z,101565.27
2018-08-23T00:53:20.313Z,101565.02
2018-08-23T00:54:20.662Z,101564.90
2018-08-23T00:55:19.817Z,101564.23
2018-08-23T00:56:20.019Z,101564.67
2018-08-23T00:57:21.296Z,101563.70
2018-08-23T00:58:22.277Z,101563.38
2018-08-23T00:59:22.434Z,101563.01
2018-08-23T01:00:22.740Z,101562.72
2018-08-23T01:01:22.965Z,101562.05
2018-08-23T01:02:23.230Z,101561.54
2018-08-23T01:03:23.660Z,101560.91
2018-08-23T01:04:22.953Z,101560.02
2018-08-23T01:05:23.101Z,101559.53
2018-08-23T01:06:24.382Z,101559.06
2018-08-23T01:07:24.602Z,101558.65
2018-08-23T01:08:25.070Z,101558.41
2018-08-23T01:09:25.426Z,101557.94
2018-08-23T01:10:25.954Z,101557.52
2018-08-23T01:11:26.205Z,101556.64
2018-08-23T01:12:26.583Z,101555.68
2018-08-23T01:13:26.925Z,101555.19
2018-08-23T01:14:27.098Z,101554.48
2018-08-23T01:15:27.274Z,101553.87
2018-08-23T01:16:27.504Z,101554.19
2018-08-23T01:17:27.733Z,101553.82
2018-08-23T01:18:27.986Z,101553.11
2018-08-23T01:19:28.194Z,101552.62
2018-08-23T01:20:28.332Z,101552.17
2018-08-23T01:21:28.550Z,101551.00
2018-08-23T01:22:28.818Z,101549.97
2018-08-23T01:23:29.080Z,101549.88
2018-08-23T01:24:29.345Z,101549.19
2018-08-23T01:25:29.530Z,101548.02
2018-08-23T01:26:30.270Z,101548.19
2018-08-23T01:27:30.935Z,101547.84
2018-08-23T01:28:32.786Z,101547.53
2018-08-23T01:29:32.101Z,101546.84
2018-08-23T01:29:40.185Z,101533.52
2018-08-23T01:30:41.313Z,101533.87
2018-08-23T01:31:41.654Z,101534.00
2018-08-23T01:32:41.903Z,101534.16
2018-08-23T01:33:42.218Z,101533.82
2018-08-23T01:34:42.429Z,101533.87
2018-08-23T01:35:42.784Z,101533.87
2018-08-23T01:36:43.559Z,101533.92
2018-08-23T01:37:43.843Z,101533.45
2018-08-23T01:38:44.257Z,101533.21
2018-08-23T01:39:44.982Z,101533.30
2018-08-23T01:40:45.201Z,101532.56
2018-08-23T01:41:46.051Z,101532.06
2018-08-23T01:42:46.247Z,101531.19
2018-08-23T01:43:46.560Z,101531.51
2018-08-23T01:44:45.799Z,101531.41
2018-08-23T01:45:47.426Z,101531.70
2018-08-23T01:46:48.022Z,101531.59
2018-08-23T01:47:48.279Z,101531.38
2018-08-23T01:48:48.660Z,101531.02
2018-08-23T01:49:48.884Z,101531.63
2018-08-23T01:50:49.721Z,101531.45
2018-08-23T01:51:49.934Z,101531.60
2018-08-23T01:52:50.141Z,101530.91
2018-08-23T01:53:50.343Z,101530.74
2018-08-23T01:54:50.720Z,101530.24
2018-08-23T01:55:51.402Z,101529.26
2018-08-23T01:56:51.662Z,101528.77
2018-08-23T01:57:51.891Z,101528.43
2018-08-23T01:58:52.087Z,101527.86
2018-08-23T01:59:52.299Z,101527.27
2018-08-23T02:00:52.530Z,101527.12
2018-08-23T02:01:52.734Z,101526.95
2018-08-23T02:02:53.046Z,101526.77
2018-08-23T02:03:53.228Z,101525.80
2018-08-23T02:04:53.490Z,101525.23
2018-08-23T02:05:53.702Z,101524.54
2018-08-23T02:06:54.120Z,101523.84
2018-08-23T02:07:54.310Z,101522.94
2018-08-23T02:08:54.546Z,101522.42
2018-08-23T02:09:54.821Z,101521.52
2018-08-23T02:10:55.096Z,101520.83
2018-08-23T02:11:55.288Z,101520.68
2018-08-23T02:12:04.579Z,101513.83
2018-08-23T02:13:06.066Z,101513.41
2018-08-23T02:14:06.338Z,101512.99
2018-08-23T02:15:06.530Z,101512.63
2018-08-23T02:16:07.154Z,101512.13
2018-08-23T02:17:07.342Z,101512.02
2018-08-23T02:18:07.483Z,101512.06
2018-08-23T02:19:07.698Z,101511.66
2018-08-23T02:20:08.020Z,101511.20
2018-08-23T02:21:08.345Z,101511.05
2018-08-23T02:22:08.737Z,101510.92
2018-08-23T02:23:09.158Z,101510.56
2018-08-23T02:24:09.372Z,101510.92
2018-08-23T02:25:10.654Z,101510.89
2018-08-23T02:26:10.006Z,101510.95
2018-08-23T02:27:10.769Z,101510.38
2018-08-23T02:28:11.003Z,101509.76
2018-08-23T02:29:11.281Z,101509.44
2018-08-23T02:30:11.671Z,101509.53
2018-08-23T02:31:12.003Z,101509.41
2018-08-23T02:32:12.282Z,101508.98
2018-08-23T02:33:12.539Z,101509.22
2018-08-23T02:34:12.958Z,101509.22
2018-08-23T02:35:13.221Z,101508.89
2018-08-23T02:36:13.497Z,101508.97
2018-08-23T02:37:14.364Z,101508.70
2018-08-23T02:38:14.609Z,101508.59
2018-08-23T02:39:14.443Z,101508.51
2018-08-23T02:40:15.902Z,101508.44
2018-08-23T02:41:16.342Z,101508.19
2018-08-23T02:42:16.573Z,101507.89
2018-08-23T02:43:17.086Z,101507.69
2018-08-23T02:44:17.345Z,101507.63
2018-08-23T02:45:17.815Z,101507.45
2018-08-23T02:46:18.630Z,101507.52
2018-08-23T02:47:18.826Z,101507.69
2018-08-23T02:48:19.170Z,101507.63
2018-08-23T02:49:19.814Z,101507.28
2018-08-23T02:50:20.073Z,101506.89
2018-08-23T02:51:20.521Z,101506.49
2018-08-23T02:52:20.982Z,101506.05
2018-08-23T02:53:21.226Z,101505.27
2018-08-23T02:54:21.568Z,101504.91
2018-08-23T02:55:21.767Z,101504.30
2018-08-23T02:56:22.085Z,101503.63
2018-08-23T02:57:22.601Z,101503.41
2018-08-23T02:57:30.596Z,101494.41
2018-08-23T02:58:31.763Z,101494.16
2018-08-23T02:59:31.988Z,101494.23
2018-08-23T03:00:32.371Z,101493.73
2018-08-23T03:01:31.695Z,101493.91
2018-08-23T03:02:33.441Z,101493.01
2018-08-23T03:03:34.354Z,101492.84
2018-08-23T03:04:34.617Z,101492.41
2018-08-23T03:05:34.978Z,101491.61
2018-08-23T03:06:35.323Z,101491.55
2018-08-23T03:07:35.788Z,101491.19
2018-08-23T03:08:36.083Z,101491.06
2018-08-23T03:09:37.475Z,101491.08
2018-08-23T03:10:36.785Z,101491.17
2018-08-23T03:11:37.070Z,101490.71
2018-08-23T03:12:37.340Z,101490.94
2018-08-23T03:13:37.934Z,101491.22
2018-08-23T03:14:38.243Z,101491.02
2018-08-23T03:15:39.069Z,101490.48
2018-08-23T03:16:39.273Z,101491.18
2018-08-23T03:17:39.541Z,101491.58
2018-08-23T03:18:40.218Z,101491.37
2018-08-23T03:19:40.464Z,101491.52
2018-08-23T03:20:40.708Z,101491.76
2018-08-23T03:21:41.116Z,101491.14
2018-08-23T03:22:41.727Z,101490.77
2018-08-23T03:23:42.082Z,101490.38
2018-08-23T03:24:42.368Z,101490.09
2018-08-23T03:25:42.611Z,101489.86
2018-08-23T03:26:43.010Z,101489.84
2018-08-23T03:27:43.398Z,101489.59
2018-08-23T03:28:43.792Z,101489.44
2018-08-23T03:29:44.204Z,101489.43
2018-08-23T03:30:43.398Z,101489.33
2018-08-23T03:31:44.613Z,101489.73
2018-08-23T03:32:45.020Z,101489.97
2018-08-23T03:33:45.640Z,101490.17
2018-08-23T03:34:45.875Z,101489.81
2018-08-23T03:35:45.331Z,101490.05
2018-08-23T03:36:46.593Z,101490.20
2018-08-23T03:37:47.047Z,101490.34
2018-08-23T03:38:47.370Z,101490.02
2018-08-23T03:39:47.632Z,101489.98
2018-08-23T03:40:47.857Z,101489.70
2018-08-23T03:41:48.150Z,101490.23
2018-08-23T03:42:48.513Z,101490.11
2018-08-23T03:43:47.710Z,101490.38
2018-08-23T03:44:29.319Z,101495.03
2018-08-23T03:45:29.498Z,101494.27
2018-08-23T03:46:29.926Z,101494.69
2018-08-23T03:47:30.103Z,101494.44
2018-08-23T03:48:30.126Z,101494.27
2018-08-23T03:49:30.489Z,101493.88
2018-08-23T03:50:30.779Z,101494.05
2018-08-23T03:51:31.042Z,101493.98
2018-08-23T03:52:31.160Z,101494.07
2018-08-23T03:53:31.075Z,101494.24
2018-08-23T03:54:31.374Z,101493.66
2018-08-23T03:55:32.591Z,101493.66
2018-08-23T03:56:32.872Z,101493.44
2018-08-23T03:57:33.115Z,101493.61
2018-08-23T03:58:33.464Z,101493.61
2018-08-23T03:59:34.158Z,101493.61
2018-08-23T04:00:35.072Z,101493.95
2018-08-23T04:01:35.387Z,101494.05
2018-08-23T04:02:35.698Z,101494.02
2018-08-23T04:03:35.887Z,101494.30
2018-08-23T04:04:36.171Z,101494.56
2018-08-23T04:05:36.410Z,101494.47
2018-08-23T04:06:36.971Z,101494.53
2018-08-23T04:07:37.796Z,101494.34
2018-08-23T04:08:38.082Z,101494.51
2018-08-23T04:09:38.772Z,101494.53
2018-08-23T04:10:39.466Z,101494.09
2018-08-23T04:11:39.794Z,101493.98
2018-08-23T04:12:40.796Z,101493.28
2018-08-23T04:13:41.029Z,101493.25
2018-08-23T04:14:41.103Z,101493.15
2018-08-23T04:15:41.299Z,101492.88
2018-08-23T04:16:41.698Z,101492.42
2018-08-23T04:17:41.953Z,101492.74
2018-08-23T04:18:42.197Z,101492.80
2018-08-23T04:19:42.463Z,101492.02
2018-08-23T04:20:42.878Z,101491.48
2018-08-23T04:21:43.189Z,101490.81
2018-08-23T04:22:43.589Z,101490.00
2018-08-23T04:23:42.774Z,101488.85
2018-08-23T04:24:44.613Z,101488.68
2018-08-23T04:25:44.853Z,101488.27
2018-08-23T04:26:45.088Z,101488.16
2018-08-23T04:27:45.632Z,101487.66
2018-08-23T04:28:45.848Z,101487.20
2018-08-23T04:29:46.281Z,101486.70
2018-08-23T04:30:45.838Z,101485.89
2018-08-23T04:31:47.097Z,101485.59
2018-08-23T04:31:55.812Z,101473.39
2018-08-23T04:32:56.164Z,101473.48
2018-08-23T04:33:56.351Z,101473.31
2018-08-23T04:34:56.635Z,101473.27
2018-08-23T04:35:56.892Z,101473.61
2018-08-23T04:36:57.233Z,101473.27
2018-08-23T04:37:57.418Z,101473.48
2018-08-23T04:38:57.884Z,101473.09
2018-08-23T04:39:58.366Z,101473.02
2018-08-23T04:40:58.638Z,101472.65
2018-08-23T04:41:59.130Z,101472.93
2018-08-23T04:42:59.423Z,101472.98
2018-08-23T04:43:59.699Z,101472.86
2018-08-23T04:44:59.782Z,101472.62
2018-08-23T04:46:00.220Z,101472.84
2018-08-23T04:47:00.633Z,101472.52
2018-08-23T04:48:00.964Z,101472.15
2018-08-23T04:49:01.359Z,101471.61
2018-08-23T04:50:01.759Z,101471.53
2018-08-23T04:51:02.107Z,101472.00
2018-08-23T04:52:02.530Z,101471.92
2018-08-23T04:53:03.221Z,101472.11
2018-08-23T04:54:03.457Z,101471.81
2018-08-23T04:55:03.788Z,101471.66
2018-08-23T04:56:04.116Z,101471.37
2018-08-23T04:57:04.342Z,101470.50
2018-08-23T04:58:04.556Z,101470.64
2018-08-23T04:59:04.829Z,101470.20
2018-08-23T05:00:05.248Z,101469.56
2018-08-23T05:01:06.081Z,101468.97
2018-08-23T05:02:06.413Z,101468.88
2018-08-23T05:03:06.865Z,101469.06
2018-08-23T05:04:07.103Z,101469.02
2018-08-23T05:05:06.565Z,101469.36
2018-08-23T05:06:07.918Z,101469.70
2018-08-23T05:07:08.196Z,101469.80
2018-08-23T05:08:08.567Z,101469.89
2018-08-23T05:09:08.994Z,101470.16
2018-08-23T05:10:08.184Z,101470.28
2018-08-23T05:11:09.495Z,101470.45
2018-08-23T05:12:09.880Z,101471.35
2018-08-23T05:13:10.176Z,101471.82
2018-08-23T05:14:10.592Z,101472.08
2018-08-23T05:15:10.143Z,101472.69
2018-08-23T05:16:12.016Z,101472.78
2018-08-23T05:17:12.256Z,101473.47
2018-08-23T05:17:24.282Z,101483.69
2018-08-23T05:18:25.446Z,101483.34
2018-08-23T05:19:25.679Z,101483.44
2018-08-23T05:20:26.048Z,101483.78
2018-08-23T05:21:26.562Z,101484.13
2018-08-23T05:22:31.855Z,101484.48
2018-08-23T05:23:27.191Z,101483.92
2018-08-23T05:24:27.686Z,101484.27
2018-08-23T05:25:27.964Z,101484.36
2018-08-23T05:26:28.234Z,101484.53
2018-08-23T05:27:28.469Z,101484.58
2018-08-23T05:28:28.798Z,101484.58
2018-08-23T05:29:29.117Z,101484.92
2018-08-23T05:30:29.529Z,101485.44
2018-08-23T05:31:29.829Z,101485.61
2018-08-23T05:32:30.182Z,101485.82
2018-08-23T05:33:30.468Z,101485.73
2018-08-23T05:34:30.772Z,101486.02
2018-08-23T05:35:31.019Z,101486.42
2018-08-23T05:36:31.265Z,101486.53
2018-08-23T05:37:31.593Z,101486.84
2018-08-23T05:38:31.895Z,101487.08
2018-08-23T05:39:32.109Z,101486.55
2018-08-23T05:40:32.346Z,101486.55
2018-08-23T05:41:32.639Z,101486.92
2018-08-23T05:42:32.901Z,101486.91
2018-08-23T05:43:33.804Z,101487.34
2018-08-23T05:44:34.040Z,101487.20
2018-08-23T05:45:34.360Z,101487.45
2018-08-23T05:46:34.857Z,101486.77
2018-08-23T05:47:35.174Z,101486.98
2018-08-23T05:48:34.412Z,101487.48
2018-08-23T05:49:35.662Z,101487.92
2018-08-23T05:50:35.995Z,101487.39
2018-08-23T05:51:36.175Z,101487.23
2018-08-23T05:52:36.445Z,101486.94
2018-08-23T05:53:36.740Z,101486.80
2018-08-23T05:54:37.046Z,101486.06
2018-08-23T05:55:37.290Z,101486.07
2018-08-23T05:56:37.571Z,101486.17
2018-08-23T05:57:37.869Z,101486.30
2018-08-23T05:58:38.058Z,101486.48
2018-08-23T05:59:38.206Z,101486.16
2018-08-23T06:00:38.460Z,101486.25
2018-08-23T06:01:38.762Z,101485.29
2018-08-23T06:01:47.457Z,101481.47
2018-08-23T06:02:47.908Z,101480.78
2018-08-23T06:03:47.197Z,101480.69
2018-08-23T06:04:48.568Z,101480.61
2018-08-23T06:05:48.933Z,101480.13
2018-08-23T06:06:49.265Z,101479.38
2018-08-23T06:07:49.579Z,101478.59
2018-08-23T06:08:49.996Z,101478.07
2018-08-23T06:09:50.283Z,101477.26
2018-08-23T06:10:50.517Z,101476.84
2018-08-23T06:11:50.604Z,101476.67
2018-08-23T06:12:50.742Z,101476.29
2018-08-23T06:13:50.931Z,101475.50
2018-08-23T06:14:51.498Z,101475.15
2018-08-23T06:15:51.749Z,101474.98
2018-08-23T06:16:52.158Z,101474.77
2018-08-23T06:17:52.448Z,101474.80
2018-08-23T06:18:52.922Z,101474.49
2018-08-23T06:19:53.429Z,101474.50
2018-08-23T06:20:52.733Z,101474.28
2018-08-23T06:21:54.008Z,101474.02
2018-08-23T06:22:54.277Z,101474.62
2018-08-23T06:23:54.576Z,101474.81
2018-08-23T06:24:54.829Z,101474.84
2018-08-23T06:25:55.514Z,101475.42
2018-08-23T06:26:54.821Z,101475.65
2018-08-23T06:27:56.394Z,101476.44
2018-08-23T06:28:56.800Z,101476.36
2018-08-23T06:29:57.519Z,101476.28
2018-08-23T06:30:58.079Z,101476.69
2018-08-23T06:31:58.347Z,101477.09
2018-08-23T06:32:58.750Z,101477.03
2018-08-23T06:33:57.893Z,101477.38
2018-08-23T06:34:59.127Z,101477.73
2018-08-23T06:35:59.357Z,101478.05
2018-08-23T06:36:59.834Z,101478.20
2018-08-23T06:38:00.289Z,101478.64
2018-08-23T06:39:00.522Z,101478.72
2018-08-23T06:40:00.855Z,101478.68
2018-08-23T06:41:01.056Z,101478.56
2018-08-23T06:42:01.389Z,101479.61
2018-08-23T06:43:02.302Z,101479.96
2018-08-23T06:44:02.539Z,101480.39
2018-08-23T06:45:02.794Z,101480.83
2018-08-23T06:46:03.170Z,101480.67
2018-08-23T06:47:02.381Z,101480.59
2018-08-23T06:48:03.836Z,101480.91
2018-08-23T06:49:04.225Z,101480.72
2018-08-23T06:50:04.501Z,101481.20
2018-08-23T06:50:13.202Z,101480.30
2018-08-23T06:51:14.494Z,101480.47
2018-08-23T06:52:13.747Z,101480.54
2018-08-23T06:53:14.985Z,101480.70
2018-08-23T06:54:15.227Z,101480.46
2018-08-23T06:55:15.605Z,101481.07
2018-08-23T06:56:15.900Z,101480.81
2018-08-23T06:57:16.208Z,101481.22
2018-08-23T06:58:16.444Z,101480.89
2018-08-23T06:59:16.802Z,101480.80
2018-08-23T07:00:17.101Z,101480.53
2018-08-23T07:01:17.430Z,101480.02
2018-08-23T07:02:16.576Z,101478.89
2018-08-23T07:03:17.776Z,101478.90
2018-08-23T07:04:18.190Z,101478.62
2018-08-23T07:05:18.734Z,101478.09
2018-08-23T07:06:19.254Z,101477.94
2018-08-23T07:07:19.610Z,101478.03
2018-08-23T07:08:19.795Z,101477.77
2018-08-23T07:09:20.176Z,101477.77
2018-08-23T07:10:20.517Z,101477.27
2018-08-23T07:11:20.875Z,101476.80
2018-08-23T07:12:21.470Z,101476.39
2018-08-23T07:13:22.053Z,101475.57
2018-08-23T07:14:22.448Z,101474.84
2018-08-23T07:15:23.003Z,101474.30
2018-08-23T07:16:23.401Z,101473.58
2018-08-23T07:17:24.050Z,101472.60
2018-08-23T07:18:23.267Z,101471.73
2018-08-23T07:19:24.710Z,101470.80
2018-08-23T07:20:24.884Z,101470.55
2018-08-23T07:21:25.192Z,101469.95
2018-08-23T07:22:25.413Z,101469.43
2018-08-23T07:23:25.819Z,101468.66
2018-08-23T07:24:26.071Z,101467.95
2018-08-23T07:25:26.410Z,101467.34
2018-08-23T07:26:26.896Z,101467.09
2018-08-23T07:27:26.079Z,101466.36
2018-08-23T07:28:27.363Z,101465.93
2018-08-23T07:29:27.601Z,101465.56
2018-08-23T07:30:28.369Z,101465.34
2018-08-23T07:31:28.794Z,101465.30
2018-08-23T07:32:27.925Z,101464.83
2018-08-23T07:33:29.691Z,101465.27
2018-08-23T07:34:29.939Z,101464.95
2018-08-23T07:35:30.276Z,101465.17
2018-08-23T07:35:39.130Z,101466.25
2018-08-23T07:36:40.254Z,101465.69
2018-08-23T07:37:40.641Z,101465.50
2018-08-23T07:38:41.082Z,101465.08
2018-08-23T07:39:41.451Z,101465.16
2018-08-23T07:40:41.843Z,101464.44
2018-08-23T07:41:42.365Z,101464.81
2018-08-23T07:42:42.615Z,101463.98
2018-08-23T07:43:42.927Z,101463.77
2018-08-23T07:44:43.075Z,101463.54
2018-08-23T07:45:43.332Z,101463.14
2018-08-23T07:46:43.724Z,101462.55
2018-08-23T07:47:43.903Z,101462.03
2018-08-23T07:48:44.211Z,101461.58
2018-08-23T07:49:43.467Z,101461.38
2018-08-23T07:50:43.719Z,101461.25
2018-08-23T07:51:45.074Z,101460.87
2018-08-23T07:52:45.599Z,101460.76
2018-08-23T07:53:44.731Z,101460.41
2018-08-23T07:54:45.925Z,101459.83
2018-08-23T07:55:45.146Z,101459.30
2018-08-23T07:56:46.497Z,101458.41
2018-08-23T07:57:46.781Z,101457.53
2018-08-23T07:58:47.080Z,101457.31
2018-08-23T07:59:47.566Z,101456.75
2018-08-23T08:00:48.258Z,101456.80
2018-08-23T08:01:48.641Z,101456.56
2018-08-23T08:02:49.008Z,101456.74
2018-08-23T08:03:49.278Z,101455.80
2018-08-23T08:04:49.483Z,101455.35
2018-08-23T08:05:49.736Z,101455.69
2018-08-23T08:06:49.962Z,101455.23
2018-08-23T08:07:50.288Z,101454.52
2018-08-23T08:08:50.568Z,101454.52
2018-08-23T08:09:50.918Z,101454.13
2018-08-23T08:10:51.116Z,101453.19
2018-08-23T08:11:51.354Z,101452.45
2018-08-23T08:12:52.095Z,101452.38
2018-08-23T08:13:51.223Z,101451.84
2018-08-23T08:14:52.484Z,101450.98
2018-08-23T08:15:51.598Z,101450.52
2018-08-23T08:16:53.178Z,101449.89
2018-08-23T08:17:53.320Z,101449.20
2018-08-23T08:18:52.584Z,101448.83
2018-08-23T08:19:53.787Z,101448.13
2018-08-23T08:20:54.092Z,101447.33
2018-08-23T08:21:53.427Z,101446.39
2018-08-23T08:22:55.021Z,101446.34
2018-08-23T08:23:54.241Z,101445.71
2018-08-23T08:24:55.999Z,101445.25
2018-08-23T08:25:56.323Z,101444.55
2018-08-23T08:26:04.411Z,101430.88
2018-08-23T08:27:05.811Z,101431.05
2018-08-23T08:28:05.131Z,101430.53
2018-08-23T08:29:06.431Z,101430.19
2018-08-23T08:30:06.673Z,101429.84
2018-08-23T08:31:06.989Z,101429.44
2018-08-23T08:32:07.153Z,101429.19
2018-08-23T08:33:07.530Z,101428.61
2018-08-23T08:34:07.818Z,101428.55
2018-08-23T08:35:08.551Z,101427.69
2018-08-23T08:36:07.758Z,101427.41
2018-08-23T08:37:08.948Z,101427.06
2018-08-23T08:38:09.315Z,101427.01
2018-08-23T08:39:09.563Z,101426.76
2018-08-23T08:40:09.763Z,101426.65
2018-08-23T08:41:10.059Z,101426.59
2018-08-23T08:42:10.247Z,101426.37
2018-08-23T08:43:10.603Z,101426.14
2018-08-23T08:44:10.800Z,101425.73
2018-08-23T08:45:11.085Z,101425.31
2018-08-23T08:46:11.383Z,101425.59
2018-08-23T08:47:11.661Z,101425.23
2018-08-23T08:48:11.942Z,101425.22
2018-08-23T08:49:12.339Z,101425.25
2018-08-23T08:50:12.579Z,101425.19
2018-08-23T08:51:13.129Z,101425.03
2018-08-23T08:52:13.386Z,101424.25
2018-08-23T08:53:13.725Z,101423.96
2018-08-23T08:54:13.230Z,101423.32
2018-08-23T08:55:14.703Z,101423.20
2018-08-23T08:56:15.047Z,101422.95
2018-08-23T08:57:15.728Z,101422.55
2018-08-23T08:58:15.318Z,101423.05
2018-08-23T08:59:16.557Z,101422.56
2018-08-23T09:00:16.816Z,101422.84
2018-08-23T09:01:17.196Z,101422.59
2018-08-23T09:02:17.565Z,101422.05
2018-08-23T09:03:17.973Z,101421.42
2018-08-23T09:04:17.302Z,101420.48
2018-08-23T09:05:18.629Z,101420.03
2018-08-23T09:06:19.146Z,101419.69
2018-08-23T09:07:19.386Z,101418.75
2018-08-23T09:08:19.656Z,101417.88
2018-08-23T09:09:20.237Z,101417.18
2018-08-23T09:10:20.518Z,101416.01
2018-08-23T09:11:20.990Z,101415.48
2018-08-23T09:12:21.362Z,101414.23
2018-08-23T09:12:29.431Z,101402.84
2018-08-23T09:13:31.040Z,101401.98
2018-08-23T09:14:31.436Z,101401.28
2018-08-23T09:15:32.285Z,101400.91
2018-08-23T09:16:32.623Z,101399.95
2018-08-23T09:17:33.045Z,101399.33
2018-08-23T09:18:33.481Z,101398.73
2018-08-23T09:19:32.695Z,101397.95
2018-08-23T09:20:34.150Z,101396.91
2018-08-23T09:21:33.325Z,101395.81
2018-08-23T09:22:34.870Z,101394.54
2018-08-23T09:23:35.366Z,101394.22
2018-08-23T09:24:35.575Z,101393.22
2018-08-23T09:25:35.812Z,101392.31
2018-08-23T09:26:36.072Z,101391.32
2018-08-23T09:27:36.535Z,101390.53
2018-08-23T09:28:36.793Z,101389.80
2018-08-23T09:29:37.091Z,101388.42
2018-08-23T09:30:37.590Z,101387.71
2018-08-23T09:31:37.861Z,101386.37
2018-08-23T09:32:38.209Z,101385.17
2018-08-23T09:33:38.516Z,101384.60
2018-08-23T09:34:38.743Z,101383.61
2018-08-23T09:35:39.206Z,101382.59
2018-08-23T09:36:39.785Z,101382.05
2018-08-23T09:37:40.213Z,101380.91
2018-08-23T09:38:40.584Z,101380.62
2018-08-23T09:39:41.139Z,101380.09
2018-08-23T09:40:41.604Z,101379.21
2018-08-23T09:41:42.063Z,101378.19
2018-08-23T09:42:42.789Z,101377.38
2018-08-23T09:43:43.335Z,101376.04
2018-08-23T09:44:43.583Z,101374.88
2018-08-23T09:45:44.242Z,101374.12
2018-08-23T09:46:44.870Z,101372.55
2018-08-23T09:47:45.659Z,101371.16
2018-08-23T09:48:45.680Z,101369.72
2018-08-23T09:49:45.945Z,101368.56
2018-08-23T09:50:46.371Z,101367.18
2018-08-23T09:51:45.590Z,101365.48
2018-08-23T09:52:46.906Z,101364.27
2018-08-23T09:53:47.089Z,101363.16
2018-08-23T09:54:47.632Z,101361.89
2018-08-23T09:55:47.874Z,101360.50
2018-08-23T09:56:48.222Z,101359.52
2018-08-23T09:57:48.885Z,101358.39
2018-08-23T09:57:57.578Z,101340.53
2018-08-23T09:58:59.046Z,101340.53
2018-08-23T09:59:58.304Z,101340.39
2018-08-23T10:00:59.475Z,101339.77
2018-08-23T10:01:59.835Z,101339.53
2018-08-23T10:03:00.213Z,101339.59
2018-08-23T10:04:00.494Z,101339.42
2018-08-23T10:05:00.973Z,101339.52
2018-08-23T10:06:01.321Z,101339.31
2018-08-23T10:07:02.242Z,101339.23
2018-08-23T10:08:02.689Z,101339.20
2018-08-23T10:09:02.965Z,101338.44
2018-08-23T10:10:03.518Z,101338.27
2018-08-23T10:11:03.743Z,101337.56
2018-08-23T10:12:04.393Z,101336.77
2018-08-23T10:13:04.638Z,101336.00
2018-08-23T10:14:04.849Z,101334.91
2018-08-23T10:15:05.264Z,101334.08
2018-08-23T10:16:05.482Z,101333.89
2018-08-23T10:17:06.073Z,101332.91
2018-08-23T10:18:06.319Z,101331.83
2018-08-23T10:19:06.912Z,101330.70
2018-08-23T10:20:07.214Z,101329.19
2018-08-23T10:21:07.642Z,101327.91
2018-08-23T10:22:08.292Z,101326.78
2018-08-23T10:23:08.419Z,101326.14
2018-08-23T10:24:08.689Z,101325.13
2018-08-23T10:25:08.892Z,101323.72
2018-08-23T10:26:09.130Z,101322.32
2018-08-23T10:27:09.408Z,101321.34
2018-08-23T10:28:10.278Z,101319.77
2018-08-23T10:29:11.171Z,101318.33
2018-08-23T10:30:11.380Z,101317.34
2018-08-23T10:31:15.615Z,101315.92
2018-08-23T10:32:11.217Z,101314.13
2018-08-23T10:33:11.406Z,101312.49
2018-08-23T10:34:12.778Z,101310.92
2018-08-23T10:35:13.114Z,101309.48
2018-08-23T10:36:13.362Z,101307.51
2018-08-23T10:37:14.326Z,101306.21
2018-08-23T10:38:14.705Z,101305.08
2018-08-23T10:39:13.946Z,101303.49
2018-08-23T10:40:15.722Z,101302.08
2018-08-23T10:41:15.911Z,101300.73
2018-08-23T10:42:16.158Z,101299.23
2018-08-23T10:43:16.464Z,101297.63
2018-08-23T10:43:27.518Z,101282.69
2018-08-23T10:44:28.723Z,101281.93
2018-08-23T10:45:28.058Z,101281.55
2018-08-23T10:46:29.320Z,101281.48
2018-08-23T10:47:29.554Z,101280.69
2018-08-23T10:48:29.805Z,101280.50
2018-08-23T10:49:30.116Z,101279.38
2018-08-23T10:50:30.469Z,101278.92
2018-08-23T10:51:29.831Z,101278.11
2018-08-23T10:52:31.023Z,101277.05
2018-08-23T10:53:31.207Z,101276.38
2018-08-23T10:54:30.460Z,101275.72
2018-08-23T10:55:31.709Z,101275.20
2018-08-23T10:56:31.974Z,101273.97
2018-08-23T10:57:32.867Z,101272.44
2018-08-23T10:58:33.235Z,101271.11
2018-08-23T10:59:33.442Z,101270.20
2018-08-23T11:00:33.673Z,101268.74
2018-08-23T11:01:34.155Z,101267.70
2018-08-23T11:02:35.086Z,101266.19
2018-08-23T11:03:35.497Z,101264.72
2018-08-23T11:04:35.640Z,101263.59
2018-08-23T11:05:35.890Z,101262.64
2018-08-23T11:06:36.362Z,101260.93
2018-08-23T11:07:36.831Z,101259.02
2018-08-23T11:08:37.256Z,101258.17
2018-08-23T11:09:37.543Z,101257.01
2018-08-23T11:10:38.008Z,101255.78
2018-08-23T11:11:38.085Z,101253.61
2018-08-23T11:12:38.452Z,101252.49
2018-08-23T11:13:38.583Z,101251.48
2018-08-23T11:14:38.913Z,101250.47
2018-08-23T11:15:39.177Z,101249.82
2018-08-23T11:16:39.531Z,101248.31
2018-08-23T11:17:38.680Z,101248.09